Angus, MN

11:02 AM CDT on August 21, 2014 (GMT -0500)
KNDGRAND8 | Change Station
CLOSE
Current Station
Personal Weather Station
Location: Grand Forks, ND
Elevation: 830 ft
Nearby Weather Stations

Elev 830 ft 47.94 °N, 97.06 °W | Updated 12 minutes ago

Overcast
Overcast
73.8 °F
Feels Like 74 °F
N
3.7
Wind Variable Wind from NNW
Gusts 3.7 mph

Today
High -- | Low -- °F
--% Chance of Precip.
Yesterday
High -- | Low -- °F
Precip. -- in
6:29 AM 8:29 PM
Waning Crescent, 13% visible
Pressure 29.75 in
Visibility 10.0 miles
Clouds Scattered Clouds 1300 ft
Overcast 2600 ft
Heat Index 74 °F
Dew Point 67 °F
Humidity 81%
Rainfall 0.00 in
Snow Depth Not available.
UV 2 out of 12
Pollen 6.30 out of 12
Air Quality Not available.
Flu Activity Not available.
METAR KGFK 211553Z 14010KT 10SM SCT013 OVC026 23/19 A2976 RMK AO2 SLP075 T02330194

More Conditions Fewer Conditions

Pressure 29.75 in
Visibility 10.0 miles
Clouds Scattered Clouds 1300 ft
Overcast 2600 ft
Heat Index 74 °F
Dew Point 67 °F
Humidity 81%
Rainfall 0.00 in
Snow Depth Not available.
UV 2 out of 12
Pollen 6.30 out of 12
Air Quality Not available.
Flu Activity Not available.
METAR KGFK 211553Z 14010KT 10SM SCT013 OVC026 23/19 A2976 RMK AO2 SLP075 T02330194

More Conditions Fewer Conditions

10-Day Weather Forecast

Almanac

Astronomy

Aug. 21, 2014 Rise Set
Actual Time 6:29 AM CDT 8:29 PM CDT
Civil Twilight 5:56 AM CDT 9:03 PM CDT
Nautical Twilight 5:14 AM CDT 9:44 PM CDT
Astronomical Twilight 4:28 AM CDT 10:30 PM CDT
Moon 2:53 AM CDT 6:05 PM CDT
Length of Visible Light 15h 06m
Length of Day
13h 59m
Tomorrow will be 3m 15s shorter.
Waning Crescent, 13% of the Moon is Illuminated
Today
Waning Crescent
Aug 25
New
Sep 2
First Quarter
Sep 8
Full
Sep 15
Last Quarter

Today's Extremes

State Highs State Lows

Community

WunderPhotos

Upload Photos

1,745,950 photos uploaded!

Nearby

Snow Depth

Station Depth Elevation
No new snow has been reported.

Earthquake Activity

City Distance Mag. Time & Date
No recent earthquake activity has been reported nearby.
Minimum magnitude displayed is 2.5.

Coastal Water Temperatures

Place Temperature
No Stations Reporting

Nearby Weather Stations